createdAt,value
2017-10-31T00:00:08.775Z,3.00
2017-10-31T00:02:35.142Z,2.50
2017-10-31T00:05:01.473Z,2.47
2017-10-31T00:07:28.485Z,2.40
2017-10-31T00:09:56.548Z,2.17
2017-10-31T00:12:22.844Z,2.10
2017-10-31T00:14:49.119Z,2.80
2017-10-31T00:17:15.403Z,2.50
2017-10-31T00:19:41.890Z,2.50
2017-10-31T00:22:08.166Z,2.53
2017-10-31T00:24:34.467Z,2.40
2017-10-31T00:27:01.721Z,1.90
2017-10-31T00:29:28.792Z,2.20
2017-10-31T00:31:55.075Z,2.30
2017-10-31T00:34:22.834Z,2.30
2017-10-31T00:36:50.602Z,2.30
2017-10-31T00:39:16.896Z,1.83
2017-10-31T00:41:43.198Z,2.47
2017-10-31T00:44:09.480Z,1.90
2017-10-31T00:46:35.778Z,1.83
2017-10-31T00:49:02.072Z,2.10
2017-10-31T00:51:29.101Z,1.60
2017-10-31T00:53:55.390Z,2.37
2017-10-31T00:56:21.680Z,2.60
2017-10-31T00:58:48.705Z,2.93
2017-10-31T01:01:15.008Z,3.10
2017-10-31T01:03:41.300Z,2.63
2017-10-31T01:06:07.669Z,2.43
2017-10-31T01:08:33.950Z,3.47
2017-10-31T01:11:00.261Z,3.10
2017-10-31T01:13:27.284Z,2.27
2017-10-31T01:15:53.581Z,2.20
2017-10-31T01:18:19.877Z,2.20
2017-10-31T01:20:46.895Z,2.90
2017-10-31T01:23:13.200Z,2.53
2017-10-31T01:25:39.490Z,2.10
2017-10-31T01:28:06.515Z,1.87
2017-10-31T01:30:32.811Z,1.77
2017-10-31T01:32:59.118Z,1.73
2017-10-31T01:35:25.387Z,2.20
2017-10-31T01:37:51.670Z,3.30
2017-10-31T01:40:18.046Z,2.30
2017-10-31T01:42:44.362Z,2.40
2017-10-31T01:45:10.670Z,2.40
2017-10-31T01:47:37.941Z,2.03
2017-10-31T01:50:05.078Z,1.77
2017-10-31T01:52:31.357Z,2.20
2017-10-31T01:54:58.403Z,2.73
2017-10-31T01:57:25.486Z,2.87
2017-10-31T01:59:51.784Z,2.13
2017-10-31T02:02:18.823Z,2.30
2017-10-31T02:04:45.877Z,2.47
2017-10-31T02:07:12.923Z,2.50
2017-10-31T02:09:40.362Z,1.70
2017-10-31T02:12:07.200Z,2.20
2017-10-31T02:14:33.569Z,2.00
2017-10-31T02:17:00.616Z,2.33
2017-10-31T02:19:27.667Z,1.80
2017-10-31T02:21:53.985Z,2.70
2017-10-31T02:24:21.060Z,2.20
2017-10-31T02:26:47.395Z,2.17
2017-10-31T02:29:13.721Z,2.93
2017-10-31T02:31:40.035Z,2.33
2017-10-31T02:34:06.350Z,2.30
2017-10-31T02:36:33.381Z,2.50
2017-10-31T02:39:13.329Z,2.40
2017-10-31T02:41:39.625Z,2.37
2017-10-31T02:44:05.958Z,2.97
2017-10-31T02:46:32.276Z,2.60
2017-10-31T02:48:58.569Z,2.40
2017-10-31T02:51:25.628Z,2.50
2017-10-31T02:53:51.952Z,3.07
2017-10-31T02:56:18.271Z,3.03
2017-10-31T02:58:45.129Z,2.17
2017-10-31T03:01:11.449Z,2.40
2017-10-31T03:03:38.498Z,3.00
2017-10-31T03:06:05.558Z,2.10
2017-10-31T03:08:31.863Z,2.07
2017-10-31T03:10:58.919Z,2.50
2017-10-31T03:13:25.983Z,2.77
2017-10-31T03:15:53.127Z,2.57
2017-10-31T03:18:19.632Z,2.70
2017-10-31T03:20:45.946Z,3.03
2017-10-31T03:23:13.738Z,2.87
2017-10-31T03:25:40.786Z,2.90
2017-10-31T03:28:07.075Z,3.10
2017-10-31T03:30:33.431Z,2.87
2017-10-31T03:33:00.509Z,2.90
2017-10-31T03:35:26.827Z,3.30
2017-10-31T03:37:53.886Z,3.60
2017-10-31T03:40:20.191Z,3.20
2017-10-31T03:42:47.248Z,3.10
2017-10-31T03:45:14.296Z,3.30
2017-10-31T03:47:41.364Z,2.73
2017-10-31T03:50:07.689Z,2.90
2017-10-31T03:52:34.008Z,2.80
2017-10-31T03:55:00.362Z,3.13
2017-10-31T03:57:26.708Z,2.57
2017-10-31T03:59:53.027Z,3.10
2017-10-31T04:02:19.362Z,3.80
2017-10-31T04:04:45.672Z,3.20
2017-10-31T04:07:11.993Z,2.37
2017-10-31T04:09:39.039Z,3.27
2017-10-31T04:12:06.109Z,3.03
2017-10-31T04:14:32.423Z,3.40
2017-10-31T04:16:58.716Z,3.40
2017-10-31T04:19:25.000Z,2.73
2017-10-31T04:21:51.280Z,3.40
2017-10-31T04:24:17.618Z,3.13
2017-10-31T04:26:44.929Z,3.60
2017-10-31T04:29:11.255Z,3.00
2017-10-31T04:31:37.547Z,3.17
2017-10-31T04:34:04.622Z,4.47
2017-10-31T04:36:30.924Z,3.63
2017-10-31T04:38:57.991Z,4.10
2017-10-31T04:41:24.267Z,5.50
2017-10-31T04:43:50.578Z,4.73
2017-10-31T04:46:16.891Z,5.53
2017-10-31T04:48:43.211Z,6.20
2017-10-31T04:51:10.254Z,6.93
2017-10-31T04:53:36.559Z,7.20
2017-10-31T04:56:03.609Z,7.13
2017-10-31T04:58:30.654Z,8.60
2017-10-31T05:00:57.745Z,8.30
2017-10-31T05:03:24.062Z,9.93
2017-10-31T05:05:50.371Z,10.10
2017-10-31T05:08:18.322Z,9.40
2017-10-31T05:10:45.690Z,10.17
2017-10-31T05:13:11.967Z,11.17
2017-10-31T05:15:38.262Z,12.50
2017-10-31T05:18:05.288Z,12.00
2017-10-31T05:20:32.330Z,11.80
2017-10-31T05:22:59.388Z,12.80
2017-10-31T05:25:26.420Z,13.00
2017-10-31T05:27:52.719Z,13.17
2017-10-31T05:30:19.781Z,13.47
2017-10-31T05:32:46.101Z,13.53
2017-10-31T05:35:12.387Z,14.17
2017-10-31T05:37:39.406Z,14.27
2017-10-31T05:40:05.676Z,14.67
2017-10-31T05:42:31.986Z,14.83
2017-10-31T05:44:58.999Z,14.37
2017-10-31T05:47:25.291Z,14.90
2017-10-31T05:49:51.561Z,16.27
2017-10-31T05:52:17.843Z,14.53
2017-10-31T05:54:44.122Z,15.60
2017-10-31T05:57:10.422Z,15.63
2017-10-31T05:59:37.615Z,16.27
2017-10-31T06:02:03.886Z,15.17
2017-10-31T06:04:30.169Z,14.80
2017-10-31T06:06:56.440Z,14.53
2017-10-31T06:09:22.734Z,16.57
2017-10-31T06:11:49.765Z,15.67
2017-10-31T06:14:16.091Z,15.30
2017-10-31T06:16:42.392Z,14.80
2017-10-31T06:19:08.694Z,15.10
2017-10-31T06:21:41.994Z,15.43
2017-10-31T06:24:21.391Z,17.20
2017-10-31T06:26:54.445Z,16.67
2017-10-31T06:29:27.054Z,14.67
2017-10-31T06:31:59.486Z,17.27
2017-10-31T06:34:25.813Z,16.20
2017-10-31T06:36:52.079Z,17.50
2017-10-31T06:39:18.382Z,15.57
2017-10-31T06:41:44.652Z,18.20
2017-10-31T06:44:10.992Z,16.77
2017-10-31T06:46:38.035Z,17.73
2017-10-31T06:49:04.391Z,15.30
2017-10-31T06:51:30.690Z,16.10
2017-10-31T06:53:57.730Z,16.10
2017-10-31T06:56:24.016Z,17.60
2017-10-31T06:58:50.759Z,15.13
2017-10-31T07:01:17.055Z,15.70
2017-10-31T07:03:44.088Z,16.90
2017-10-31T07:06:10.404Z,15.47
2017-10-31T07:08:36.715Z,16.00
2017-10-31T07:11:03.013Z,17.63
2017-10-31T07:13:29.449Z,16.37
2017-10-31T07:15:55.773Z,14.40
2017-10-31T07:18:22.063Z,15.50
2017-10-31T07:20:48.376Z,14.73
2017-10-31T07:23:14.681Z,16.40
2017-10-31T07:25:40.989Z,16.43
2017-10-31T07:28:07.291Z,17.20
2017-10-31T07:30:33.597Z,16.70
2017-10-31T07:32:59.889Z,16.20
2017-10-31T07:35:26.205Z,16.90
2017-10-31T07:37:52.623Z,15.83
2017-10-31T07:40:18.974Z,15.03
2017-10-31T07:42:45.277Z,15.10
2017-10-31T07:45:12.331Z,14.97
2017-10-31T07:47:39.370Z,14.90
2017-10-31T07:50:05.790Z,14.87
2017-10-31T07:52:32.247Z,14.03
2017-10-31T07:55:00.474Z,14.27
2017-10-31T07:57:27.451Z,14.87
2017-10-31T07:59:54.620Z,13.97
2017-10-31T08:02:21.085Z,12.80
2017-10-31T08:07:46.942Z,13.73
2017-10-31T08:10:13.351Z,12.77
2017-10-31T08:12:39.795Z,12.23
2017-10-31T08:15:06.146Z,12.10
2017-10-31T08:17:32.498Z,10.97
2017-10-31T08:19:58.810Z,11.67
2017-10-31T08:22:25.146Z,11.30
2017-10-31T08:24:51.449Z,10.00
2017-10-31T08:27:17.770Z,12.50
2017-10-31T08:29:44.120Z,11.13
2017-10-31T08:32:10.464Z,12.20
2017-10-31T08:34:36.799Z,11.50
2017-10-31T08:37:03.160Z,12.77
2017-10-31T08:39:30.946Z,11.67
2017-10-31T08:41:57.350Z,12.23
2017-10-31T08:44:23.647Z,12.10
2017-10-31T08:46:49.974Z,12.47
2017-10-31T08:49:16.345Z,12.27
2017-10-31T08:51:42.686Z,11.80
2017-10-31T08:54:08.994Z,13.80
2017-10-31T08:56:35.322Z,14.77
2017-10-31T08:59:01.655Z,13.87
2017-10-31T09:01:27.975Z,13.70
2017-10-31T09:03:54.277Z,14.70
2017-10-31T09:06:20.591Z,12.70
2017-10-31T09:08:47.770Z,13.97
2017-10-31T09:11:14.143Z,13.40
2017-10-31T09:13:41.348Z,12.80
2017-10-31T09:16:08.640Z,14.23
2017-10-31T09:18:35.471Z,13.67
2017-10-31T09:21:01.974Z,15.20
2017-10-31T09:23:28.444Z,14.60
2017-10-31T09:25:54.882Z,14.03
2017-10-31T09:28:21.977Z,13.70
2017-10-31T09:30:48.337Z,15.23
2017-10-31T09:33:14.679Z,14.90
2017-10-31T09:35:41.072Z,13.80
2017-10-31T09:38:07.427Z,15.50
2017-10-31T09:40:33.786Z,15.40
2017-10-31T09:43:00.110Z,13.93
2017-10-31T09:45:26.430Z,16.60
2017-10-31T09:47:52.799Z,15.30
2017-10-31T09:50:19.111Z,16.37
2017-10-31T09:52:45.434Z,14.93
2017-10-31T09:55:11.739Z,14.50
2017-10-31T09:57:38.134Z,14.27
2017-10-31T10:00:05.162Z,13.57
2017-10-31T10:02:32.239Z,14.13
2017-10-31T10:04:58.536Z,14.40
2017-10-31T10:07:24.874Z,13.60
2017-10-31T10:09:51.911Z,15.50
2017-10-31T10:12:18.239Z,14.50
2017-10-31T10:14:45.381Z,15.27
2017-10-31T10:17:11.716Z,14.13
2017-10-31T10:19:38.023Z,15.07
2017-10-31T10:22:04.364Z,15.30
2017-10-31T10:24:30.675Z,15.67
2017-10-31T10:26:57.054Z,15.07
2017-10-31T10:29:23.389Z,14.33
2017-10-31T10:31:50.463Z,14.80
2017-10-31T10:34:16.830Z,14.57
2017-10-31T10:36:43.226Z,15.17
2017-10-31T10:39:09.586Z,13.20
2017-10-31T10:41:35.880Z,14.10
2017-10-31T10:44:02.249Z,12.47
2017-10-31T10:46:28.567Z,11.80
2017-10-31T10:48:54.909Z,12.13
2017-10-31T10:51:21.238Z,10.97
2017-10-31T10:53:47.550Z,11.10
2017-10-31T10:56:13.942Z,10.60
2017-10-31T10:58:41.010Z,11.17
2017-10-31T11:01:07.338Z,11.03
2017-10-31T11:03:33.710Z,11.20
2017-10-31T11:06:00.128Z,9.20
2017-10-31T11:08:26.502Z,9.50
2017-10-31T11:10:53.571Z,8.63
2017-10-31T11:13:19.957Z,8.53
2017-10-31T11:15:46.290Z,7.70
2017-10-31T11:18:19.685Z,6.83
2017-10-31T11:20:46.005Z,7.10
2017-10-31T11:23:12.345Z,7.63
2017-10-31T11:25:38.733Z,7.30
2017-10-31T11:28:06.267Z,7.20
2017-10-31T11:30:32.641Z,7.20
2017-10-31T11:32:58.987Z,6.27
2017-10-31T11:35:25.356Z,6.60
2017-10-31T11:37:51.713Z,5.80
2017-10-31T11:40:18.083Z,5.10
2017-10-31T11:42:45.208Z,5.70
2017-10-31T11:45:12.360Z,5.43
2017-10-31T11:47:38.739Z,4.80
2017-10-31T11:50:05.221Z,5.70
2017-10-31T11:52:31.651Z,5.10
2017-10-31T11:54:58.126Z,5.83
2017-10-31T11:57:25.253Z,5.17
2017-10-31T11:59:51.570Z,5.20
2017-10-31T12:02:17.887Z,4.77
2017-10-31T12:04:44.246Z,5.07
2017-10-31T12:07:10.813Z,5.87
2017-10-31T12:09:37.234Z,7.20
2017-10-31T12:12:04.342Z,7.33
2017-10-31T12:14:30.743Z,8.20
2017-10-31T12:16:57.127Z,8.43
2017-10-31T12:19:23.453Z,8.30
2017-10-31T12:21:49.766Z,8.30
2017-10-31T12:24:16.133Z,8.37
2017-10-31T12:26:42.524Z,8.60
2017-10-31T12:29:08.844Z,8.20
2017-10-31T12:31:35.206Z,8.23
2017-10-31T12:34:01.533Z,8.13
2017-10-31T12:36:27.901Z,8.10
2017-10-31T12:38:55.021Z,7.97
2017-10-31T12:41:21.359Z,7.50
2017-10-31T12:43:47.730Z,7.47
2017-10-31T12:46:14.808Z,6.17
2017-10-31T12:48:41.183Z,5.87
2017-10-31T12:51:07.534Z,5.07
2017-10-31T12:53:34.607Z,4.70
2017-10-31T12:56:00.952Z,4.60
2017-10-31T12:58:27.310Z,5.60
2017-10-31T13:00:53.677Z,5.03
2017-10-31T13:03:20.789Z,5.33
2017-10-31T13:05:47.123Z,5.80
2017-10-31T13:08:13.527Z,5.57
2017-10-31T13:10:39.867Z,5.60
2017-10-31T13:13:06.234Z,7.10
2017-10-31T13:15:32.571Z,6.17
2017-10-31T13:17:59.677Z,7.47
2017-10-31T13:20:26.049Z,7.57
2017-10-31T13:22:53.140Z,8.40
2017-10-31T13:25:19.483Z,9.03
2017-10-31T13:27:46.885Z,8.43
2017-10-31T13:30:15.291Z,10.20
2017-10-31T13:32:42.918Z,10.57
2017-10-31T13:35:11.019Z,10.00
2017-10-31T13:37:39.070Z,10.20
2017-10-31T13:40:06.639Z,11.13
2017-10-31T13:42:34.992Z,10.57
2017-10-31T13:45:01.598Z,11.07
2017-10-31T13:47:28.991Z,11.37
2017-10-31T13:49:56.548Z,12.67
2017-10-31T13:52:24.006Z,11.30
2017-10-31T13:54:50.429Z,11.63
2017-10-31T13:57:16.729Z,11.80
2017-10-31T13:59:43.107Z,11.40
2017-10-31T14:02:11.173Z,11.30
2017-10-31T14:04:40.018Z,11.30
2017-10-31T14:07:06.867Z,13.40
2017-10-31T14:09:34.889Z,11.77
2017-10-31T14:12:03.252Z,12.20
2017-10-31T14:14:29.795Z,11.10
2017-10-31T14:16:56.111Z,10.80
2017-10-31T14:19:23.274Z,10.20
2017-10-31T14:21:50.726Z,11.67
2017-10-31T14:24:17.231Z,11.97
2017-10-31T14:26:43.542Z,11.30
2017-10-31T14:29:09.832Z,12.40
2017-10-31T14:31:36.922Z,11.83
2017-10-31T14:34:03.241Z,11.87
2017-10-31T14:36:29.541Z,11.20
2017-10-31T14:38:56.595Z,11.53
2017-10-31T14:41:23.634Z,12.13
2017-10-31T14:43:50.126Z,12.17
2017-10-31T14:46:16.463Z,11.70
2017-10-31T14:48:42.781Z,11.80
2017-10-31T14:51:09.126Z,12.50
2017-10-31T14:53:35.438Z,12.70
2017-10-31T14:56:01.743Z,12.37
2017-10-31T14:58:28.094Z,12.70
2017-10-31T15:00:54.404Z,13.07
2017-10-31T15:03:20.725Z,12.17
2017-10-31T15:05:47.052Z,13.20
2017-10-31T15:08:14.099Z,12.90
2017-10-31T15:10:41.149Z,12.97
2017-10-31T15:13:08.207Z,13.20
2017-10-31T15:15:34.536Z,13.47
2017-10-31T15:18:00.925Z,13.23
2017-10-31T15:20:27.255Z,12.87
2017-10-31T15:22:53.586Z,13.43
2017-10-31T15:25:19.887Z,13.73
2017-10-31T15:27:46.218Z,12.50
2017-10-31T15:30:12.497Z,14.40
2017-10-31T15:32:38.792Z,12.93
2017-10-31T15:35:05.106Z,13.00
2017-10-31T15:37:32.162Z,12.40
2017-10-31T15:39:58.487Z,12.43
2017-10-31T15:42:24.847Z,12.47
2017-10-31T15:44:51.141Z,12.73
2017-10-31T15:47:17.483Z,12.30
2017-10-31T15:49:43.793Z,13.67
2017-10-31T15:52:10.088Z,12.70
2017-10-31T15:54:37.127Z,12.63
2017-10-31T15:57:03.460Z,11.43
2017-10-31T15:59:29.786Z,11.20
2017-10-31T16:01:56.076Z,11.87
2017-10-31T16:04:22.379Z,11.17
2017-10-31T16:06:48.666Z,11.70
2017-10-31T16:09:14.965Z,10.60
2017-10-31T16:11:41.990Z,11.30
2017-10-31T16:14:08.303Z,11.63
2017-10-31T16:16:34.618Z,10.90
2017-10-31T16:19:01.671Z,10.00
2017-10-31T16:21:28.703Z,9.70
2017-10-31T16:23:55.003Z,10.50
2017-10-31T16:26:21.292Z,10.77
2017-10-31T16:28:47.599Z,10.47
2017-10-31T16:31:14.644Z,10.30
2017-10-31T16:33:41.725Z,10.20
2017-10-31T16:36:08.025Z,10.00
2017-10-31T16:38:35.070Z,10.27
2017-10-31T16:41:02.171Z,8.70
2017-10-31T16:43:28.538Z,8.80
2017-10-31T16:45:54.850Z,8.00
2017-10-31T16:48:21.169Z,8.47
2017-10-31T16:50:47.460Z,9.33
2017-10-31T16:53:14.482Z,9.67
2017-10-31T16:55:40.789Z,8.40
2017-10-31T16:58:07.081Z,8.50
2017-10-31T17:00:33.377Z,8.70
2017-10-31T17:03:00.418Z,8.27
2017-10-31T17:05:26.714Z,7.97
2017-10-31T17:07:53.018Z,8.40
2017-10-31T17:10:19.327Z,7.60
2017-10-31T17:12:46.342Z,7.67
2017-10-31T17:15:12.672Z,7.47
2017-10-31T17:17:38.966Z,7.60
2017-10-31T17:20:05.292Z,7.33
2017-10-31T17:22:31.592Z,7.30
2017-10-31T17:24:58.616Z,7.83
2017-10-31T17:27:25.658Z,7.73
2017-10-31T17:29:51.964Z,7.80
2017-10-31T17:32:18.283Z,8.53
2017-10-31T17:34:44.664Z,8.80
2017-10-31T17:37:11.740Z,8.80
2017-10-31T17:39:38.017Z,8.30
2017-10-31T17:42:04.315Z,6.97
2017-10-31T17:44:30.608Z,8.10
2017-10-31T17:46:56.932Z,8.37
2017-10-31T17:49:23.974Z,8.10
2017-10-31T17:51:51.037Z,8.80
2017-10-31T17:54:18.087Z,8.50
2017-10-31T17:56:44.403Z,7.80
2017-10-31T17:59:10.901Z,9.17
2017-10-31T18:01:38.923Z,8.17
2017-10-31T18:04:05.222Z,8.93
2017-10-31T18:06:31.514Z,8.73
2017-10-31T18:08:57.826Z,9.03
2017-10-31T18:11:24.122Z,8.77
2017-10-31T18:13:51.181Z,9.17
2017-10-31T18:16:18.235Z,9.63
2017-10-31T18:18:44.556Z,9.30
2017-10-31T18:21:11.589Z,9.80
2017-10-31T18:23:38.693Z,9.17
2017-10-31T18:26:05.065Z,9.40
2017-10-31T18:28:32.172Z,10.27
2017-10-31T18:30:58.575Z,8.73
2017-10-31T18:33:25.025Z,9.40
2017-10-31T18:35:51.917Z,9.20
2017-10-31T18:38:19.771Z,10.27
2017-10-31T18:40:46.223Z,9.83
2017-10-31T18:43:12.740Z,10.07
2017-10-31T18:45:39.047Z,9.33
2017-10-31T18:48:05.345Z,10.07
2017-10-31T18:50:31.659Z,11.00
2017-10-31T18:52:58.699Z,9.43
2017-10-31T18:55:25.023Z,10.90
2017-10-31T18:57:51.406Z,10.30
2017-10-31T19:00:17.773Z,10.47
2017-10-31T19:02:44.181Z,10.07
2017-10-31T19:05:10.715Z,10.73
2017-10-31T19:07:37.037Z,9.83
2017-10-31T19:10:03.495Z,10.23
2017-10-31T19:12:29.993Z,10.20
2017-10-31T19:14:56.317Z,10.87
2017-10-31T19:17:22.946Z,10.70
2017-10-31T19:19:49.265Z,10.80
2017-10-31T19:22:15.812Z,9.50
2017-10-31T19:24:42.201Z,11.10
2017-10-31T19:27:08.526Z,10.30
2017-10-31T19:29:34.925Z,10.90
2017-10-31T19:32:02.890Z,10.83
2017-10-31T19:34:29.224Z,10.90
2017-10-31T19:36:55.599Z,11.90
2017-10-31T19:39:21.901Z,10.20
2017-10-31T19:41:48.268Z,10.43
2017-10-31T19:44:14.806Z,10.67
2017-10-31T19:46:41.289Z,11.07
2017-10-31T19:49:07.703Z,12.00
2017-10-31T19:51:34.000Z,12.50
2017-10-31T19:54:00.395Z,11.87
2017-10-31T19:56:26.713Z,13.50
2017-10-31T19:58:53.023Z,12.17
2017-10-31T20:01:19.346Z,12.50
2017-10-31T20:03:45.730Z,12.57
2017-10-31T20:06:12.069Z,13.10
2017-10-31T20:08:38.410Z,14.43
2017-10-31T20:11:04.844Z,13.77
2017-10-31T20:13:31.362Z,15.20
2017-10-31T20:15:57.661Z,16.33
2017-10-31T20:18:24.101Z,14.80
2017-10-31T20:20:50.440Z,17.67
2017-10-31T20:23:16.777Z,18.17
2017-10-31T20:25:43.186Z,19.40
2017-10-31T20:28:09.520Z,20.53
2017-10-31T20:30:35.829Z,20.47
2017-10-31T20:33:02.134Z,20.70
2017-10-31T20:35:29.189Z,20.87
2017-10-31T20:37:56.242Z,21.80
2017-10-31T20:40:23.286Z,23.00
2017-10-31T20:42:50.317Z,20.90
2017-10-31T20:45:18.102Z,24.00
2017-10-31T20:47:45.124Z,24.90
2017-10-31T20:50:12.928Z,25.60
2017-10-31T20:52:39.328Z,26.50
2017-10-31T20:55:05.641Z,25.00
2017-10-31T20:57:31.877Z,24.30
2017-10-31T20:59:58.971Z,26.30
2017-10-31T21:02:25.310Z,28.60
2017-10-31T21:04:51.617Z,26.10
2017-10-31T21:07:17.921Z,27.40
2017-10-31T21:09:44.234Z,27.80
2017-10-31T21:12:10.603Z,30.43
2017-10-31T21:14:37.647Z,31.00
2017-10-31T21:17:03.998Z,30.40
2017-10-31T21:19:30.318Z,33.10
2017-10-31T21:21:56.614Z,32.33
2017-10-31T21:24:22.897Z,33.97
2017-10-31T21:26:49.194Z,32.43
2017-10-31T21:29:15.498Z,36.40
2017-10-31T21:31:42.575Z,37.10
2017-10-31T21:34:08.897Z,37.90
2017-10-31T21:36:35.984Z,36.90
2017-10-31T21:39:02.361Z,37.23
2017-10-31T21:41:29.430Z,37.90
2017-10-31T21:43:56.714Z,38.20
2017-10-31T21:46:23.045Z,39.30
2017-10-31T21:48:49.358Z,38.37
2017-10-31T21:51:15.674Z,37.00
2017-10-31T21:53:42.780Z,39.03
2017-10-31T21:56:09.147Z,38.30
2017-10-31T21:58:36.255Z,40.87
2017-10-31T22:01:02.677Z,42.83
2017-10-31T22:03:28.985Z,40.20
2017-10-31T22:05:55.350Z,40.07
2017-10-31T22:08:21.649Z,41.03
2017-10-31T22:10:47.942Z,41.10
2017-10-31T22:13:14.299Z,44.10
2017-10-31T22:15:40.596Z,45.13
2017-10-31T22:18:06.926Z,46.97
2017-10-31T22:20:33.973Z,46.40
2017-10-31T22:23:00.289Z,46.80
2017-10-31T22:25:26.589Z,44.90
2017-10-31T22:27:52.890Z,48.80
2017-10-31T22:30:19.175Z,48.50
2017-10-31T22:32:45.481Z,45.87
2017-10-31T22:35:11.782Z,49.70
2017-10-31T22:37:38.076Z,48.50
2017-10-31T22:40:05.151Z,50.93
2017-10-31T22:42:31.466Z,50.60
2017-10-31T22:44:58.566Z,51.00
2017-10-31T22:47:24.899Z,50.70
2017-10-31T22:49:51.180Z,50.80
2017-10-31T22:52:18.206Z,50.73
2017-10-31T22:54:45.283Z,50.53
2017-10-31T22:57:11.578Z,52.13
2017-10-31T22:59:37.866Z,50.57
2017-10-31T23:02:04.164Z,50.80
2017-10-31T23:04:30.476Z,50.80
2017-10-31T23:06:57.526Z,51.90
2017-10-31T23:09:24.571Z,50.20
2017-10-31T23:11:50.859Z,50.53
2017-10-31T23:14:25.225Z,51.63
2017-10-31T23:16:51.511Z,53.27
2017-10-31T23:19:17.818Z,52.97
2017-10-31T23:21:44.113Z,53.83
2017-10-31T23:24:11.171Z,53.97
2017-10-31T23:26:38.206Z,51.23
2017-10-31T23:29:06.005Z,52.37
2017-10-31T23:31:32.301Z,53.60
2017-10-31T23:33:59.336Z,54.07
2017-10-31T23:36:25.640Z,55.37
2017-10-31T23:38:51.921Z,53.57
2017-10-31T23:41:18.964Z,54.97
2017-10-31T23:43:45.999Z,53.50
2017-10-31T23:46:12.304Z,54.47
2017-10-31T23:48:38.606Z,52.53
2017-10-31T23:51:04.927Z,55.77
2017-10-31T23:53:31.207Z,54.00
2017-10-31T23:55:58.258Z,52.73
2017-10-31T23:58:25.311Z,51.20
